Terminal Aerodrome Forecast
Issued by NWS Topeka, KS

Home | Current Version | Previous Version | Graphics & Text | Print | Product List | Glossary On
Versions: 1 2 3 4 5 6 7 8 9 10 11 12 13 14 15 16 17 18 19 20
000
FTUS43 KTOP 031110 AAC
TAFTOP
TAF AMD
KTOP 031110Z 0311/0406 06004KT 4SM -SHRA BR SCT008 OVC012
      TEMPO 0311/0313 3SM -SHRA BR BKN008
     FM031600 01005KT P6SM BKN015
     FM031900 03005KT P6SM BKN050=

USA.gov is the U.S. government's official web portal to all federal, state and local government web resources and services.